sensor_id;sensor_type;location;lat;lon;timestamp;P1;durP1;ratioP1;P2;durP2;ratioP2
21987;SDS011;11158;53.404;-1.510;2023-03-04T00:01:41;6.57;;;2.90;;
21987;SDS011;11158;53.404;-1.510;2023-03-04T00:04:07;7.82;;;3.10;;
21987;SDS011;11158;53.404;-1.510;2023-03-04T00:06:32;9.05;;;2.90;;
21987;SDS011;11158;53.404;-1.510;2023-03-04T00:08:58;9.25;;;3.00;;
21987;SDS011;11158;53.404;-1.510;2023-03-04T00:11:24;7.65;;;2.97;;
21987;SDS011;11158;53.404;-1.510;2023-03-04T00:13:49;6.50;;;2.92;;
21987;SDS011;11158;53.404;-1.510;2023-03-04T00:16:15;9.65;;;3.25;;
21987;SDS011;11158;53.404;-1.510;2023-03-04T00:18:41;10.35;;;2.80;;
21987;SDS011;11158;53.404;-1.510;2023-03-04T00:21:06;6.10;;;2.20;;
21987;SDS011;11158;53.404;-1.510;2023-03-04T00:23:32;6.82;;;2.50;;
21987;SDS011;11158;53.404;-1.510;2023-03-04T00:25:57;6.95;;;2.55;;
21987;SDS011;11158;53.404;-1.510;2023-03-04T00:28:23;11.73;;;2.75;;
21987;SDS011;11158;53.404;-1.510;2023-03-04T00:30:48;6.95;;;3.05;;
21987;SDS011;11158;53.404;-1.510;2023-03-04T00:33:14;7.45;;;2.70;;
21987;SDS011;11158;53.404;-1.510;2023-03-04T00:35:40;9.65;;;3.53;;
21987;SDS011;11158;53.404;-1.510;2023-03-04T00:38:06;11.18;;;3.28;;
21987;SDS011;11158;53.404;-1.510;2023-03-04T00:40:31;11.50;;;3.72;;
21987;SDS011;11158;53.404;-1.510;2023-03-04T00:42:57;7.40;;;2.83;;
21987;SDS011;11158;53.404;-1.510;2023-03-04T00:45:22;11.57;;;3.22;;
21987;SDS011;11158;53.404;-1.510;2023-03-04T00:47:48;10.63;;;3.30;;
21987;SDS011;11158;53.404;-1.510;2023-03-04T00:50:14;10.63;;;4.10;;
21987;SDS011;11158;53.404;-1.510;2023-03-04T00:52:39;7.10;;;3.80;;
21987;SDS011;11158;53.404;-1.510;2023-03-04T00:55:05;5.85;;;3.53;;
21987;SDS011;11158;53.404;-1.510;2023-03-04T00:57:31;7.75;;;3.80;;
21987;SDS011;11158;53.404;-1.510;2023-03-04T00:59:57;10.68;;;3.67;;
21987;SDS011;11158;53.404;-1.510;2023-03-04T01:02:22;7.57;;;3.85;;
21987;SDS011;11158;53.404;-1.510;2023-03-04T01:04:48;6.82;;;4.10;;
21987;SDS011;11158;53.404;-1.510;2023-03-04T01:07:13;12.95;;;4.13;;
21987;SDS011;11158;53.404;-1.510;2023-03-04T01:09:39;10.32;;;4.10;;
21987;SDS011;11158;53.404;-1.510;2023-03-04T01:12:05;9.75;;;4.60;;
21987;SDS011;11158;53.404;-1.510;2023-03-04T01:14:31;7.97;;;4.03;;
21987;SDS011;11158;53.404;-1.510;2023-03-04T01:16:59;11.18;;;3.70;;
21987;SDS011;11158;53.404;-1.510;2023-03-04T01:19:25;8.52;;;3.50;;
21987;SDS011;11158;53.404;-1.510;2023-03-04T01:21:50;7.55;;;3.35;;
21987;SDS011;11158;53.404;-1.510;2023-03-04T01:24:16;8.20;;;3.00;;
21987;SDS011;11158;53.404;-1.510;2023-03-04T01:26:42;13.23;;;3.15;;
21987;SDS011;11158;53.404;-1.510;2023-03-04T01:29:07;6.38;;;2.75;;
21987;SDS011;11158;53.404;-1.510;2023-03-04T01:31:33;9.65;;;3.17;;
21987;SDS011;11158;53.404;-1.510;2023-03-04T01:33:59;8.30;;;2.95;;
21987;SDS011;11158;53.404;-1.510;2023-03-04T01:36:24;8.73;;;3.17;;
21987;SDS011;11158;53.404;-1.510;2023-03-04T01:38:50;12.95;;;3.20;;
21987;SDS011;11158;53.404;-1.510;2023-03-04T01:41:16;8.75;;;3.45;;
21987;SDS011;11158;53.404;-1.510;2023-03-04T01:43:46;10.48;;;3.38;;
21987;SDS011;11158;53.404;-1.510;2023-03-04T01:46:11;9.70;;;3.05;;
21987;SDS011;11158;53.404;-1.510;2023-03-04T01:48:41;6.55;;;2.92;;
21987;SDS011;11158;53.404;-1.510;2023-03-04T01:51:13;6.97;;;2.90;;
21987;SDS011;11158;53.404;-1.510;2023-03-04T01:53:40;6.13;;;3.40;;
21987;SDS011;11158;53.404;-1.510;2023-03-04T01:56:14;11.73;;;4.00;;
21987;SDS011;11158;53.404;-1.510;2023-03-04T01:58:43;6.90;;;3.50;;
21987;SDS011;11158;53.404;-1.510;2023-03-04T02:01:11;9.75;;;3.70;;
21987;SDS011;11158;53.404;-1.510;2023-03-04T02:03:38;6.30;;;3.08;;
21987;SDS011;11158;53.404;-1.510;2023-03-04T02:06:04;7.13;;;3.30;;
21987;SDS011;11158;53.404;-1.510;2023-03-04T02:08:30;5.78;;;2.90;;
21987;SDS011;11158;53.404;-1.510;2023-03-04T02:10:56;6.00;;;3.22;;
21987;SDS011;11158;53.404;-1.510;2023-03-04T02:13:21;13.57;;;3.70;;
21987;SDS011;11158;53.404;-1.510;2023-03-04T02:15:47;8.27;;;3.20;;
21987;SDS011;11158;53.404;-1.510;2023-03-04T02:18:20;7.43;;;3.75;;
21987;SDS011;11158;53.404;-1.510;2023-03-04T02:26:31;12.27;;;3.55;;
21987;SDS011;11158;53.404;-1.510;2023-03-04T02:28:57;6.97;;;3.05;;
21987;SDS011;11158;53.404;-1.510;2023-03-04T02:33:59;8.77;;;3.15;;
21987;SDS011;11158;53.404;-1.510;2023-03-04T02:36:27;9.82;;;2.90;;
21987;SDS011;11158;53.404;-1.510;2023-03-04T02:38:54;5.80;;;2.40;;
21987;SDS011;11158;53.404;-1.510;2023-03-04T02:41:25;9.30;;;2.63;;
21987;SDS011;11158;53.404;-1.510;2023-03-04T02:43:54;7.85;;;2.65;;
21987;SDS011;11158;53.404;-1.510;2023-03-04T02:46:21;4.00;;;3.05;;
21987;SDS011;11158;53.404;-1.510;2023-03-04T02:48:47;8.90;;;2.65;;
21987;SDS011;11158;53.404;-1.510;2023-03-04T02:51:13;7.32;;;3.13;;
21987;SDS011;11158;53.404;-1.510;2023-03-04T02:53:39;9.45;;;2.95;;
21987;SDS011;11158;53.404;-1.510;2023-03-04T02:56:04;7.68;;;2.90;;
21987;SDS011;11158;53.404;-1.510;2023-03-04T02:58:30;12.60;;;3.17;;
21987;SDS011;11158;53.404;-1.510;2023-03-04T03:00:56;8.73;;;3.55;;
21987;SDS011;11158;53.404;-1.510;2023-03-04T03:03:21;8.75;;;3.42;;
21987;SDS011;11158;53.404;-1.510;2023-03-04T03:05:47;14.40;;;3.70;;
21987;SDS011;11158;53.404;-1.510;2023-03-04T03:08:13;7.72;;;2.80;;
21987;SDS011;11158;53.404;-1.510;2023-03-04T03:10:38;8.13;;;3.10;;
21987;SDS011;11158;53.404;-1.510;2023-03-04T03:13:04;9.95;;;3.53;;
21987;SDS011;11158;53.404;-1.510;2023-03-04T03:15:30;6.93;;;2.78;;
21987;SDS011;11158;53.404;-1.510;2023-03-04T03:17:55;7.10;;;2.83;;
21987;SDS011;11158;53.404;-1.510;2023-03-04T03:20:21;5.93;;;2.47;;
21987;SDS011;11158;53.404;-1.510;2023-03-04T03:22:47;5.95;;;2.72;;
21987;SDS011;11158;53.404;-1.510;2023-03-04T03:25:14;5.93;;;2.42;;
21987;SDS011;11158;53.404;-1.510;2023-03-04T03:27:40;7.90;;;2.38;;
21987;SDS011;11158;53.404;-1.510;2023-03-04T03:30:07;6.22;;;2.45;;
21987;SDS011;11158;53.404;-1.510;2023-03-04T03:32:35;6.97;;;2.50;;
21987;SDS011;11158;53.404;-1.510;2023-03-04T03:35:00;6.65;;;2.70;;
21987;SDS011;11158;53.404;-1.510;2023-03-04T03:37:26;9.50;;;2.67;;
21987;SDS011;11158;53.404;-1.510;2023-03-04T03:39:51;8.90;;;2.20;;
21987;SDS011;11158;53.404;-1.510;2023-03-04T03:42:17;5.93;;;2.33;;
21987;SDS011;11158;53.404;-1.510;2023-03-04T03:44:43;6.38;;;2.58;;
21987;SDS011;11158;53.404;-1.510;2023-03-04T03:47:08;6.13;;;2.33;;
21987;SDS011;11158;53.404;-1.510;2023-03-04T03:49:34;7.55;;;2.50;;
21987;SDS011;11158;53.404;-1.510;2023-03-04T03:51:59;6.20;;;2.50;;
21987;SDS011;11158;53.404;-1.510;2023-03-04T03:54:25;6.63;;;2.35;;
21987;SDS011;11158;53.404;-1.510;2023-03-04T03:56:50;7.90;;;2.30;;
21987;SDS011;11158;53.404;-1.510;2023-03-04T03:59:16;7.18;;;2.13;;
21987;SDS011;11158;53.404;-1.510;2023-03-04T04:01:41;3.92;;;2.40;;
21987;SDS011;11158;53.404;-1.510;2023-03-04T04:04:07;5.30;;;1.98;;
21987;SDS011;11158;53.404;-1.510;2023-03-04T04:06:33;7.00;;;2.45;;
21987;SDS011;11158;53.404;-1.510;2023-03-04T04:08:58;8.90;;;2.67;;
21987;SDS011;11158;53.404;-1.510;2023-03-04T04:11:25;5.85;;;1.85;;
21987;SDS011;11158;53.404;-1.510;2023-03-04T04:13:52;4.78;;;2.10;;
21987;SDS011;11158;53.404;-1.510;2023-03-04T04:16:18;2.83;;;1.50;;
21987;SDS011;11158;53.404;-1.510;2023-03-04T04:18:43;6.30;;;1.88;;
21987;SDS011;11158;53.404;-1.510;2023-03-04T04:21:09;3.75;;;1.73;;
21987;SDS011;11158;53.404;-1.510;2023-03-04T04:23:34;6.07;;;2.03;;
21987;SDS011;11158;53.404;-1.510;2023-03-04T04:26:00;4.35;;;2.00;;
21987;SDS011;11158;53.404;-1.510;2023-03-04T04:28:25;4.97;;;1.90;;
21987;SDS011;11158;53.404;-1.510;2023-03-04T04:30:51;6.60;;;2.80;;
21987;SDS011;11158;53.404;-1.510;2023-03-04T04:33:16;4.93;;;1.75;;
21987;SDS011;11158;53.404;-1.510;2023-03-04T04:35:42;4.90;;;2.15;;
21987;SDS011;11158;53.404;-1.510;2023-03-04T04:38:08;3.53;;;2.00;;
21987;SDS011;11158;53.404;-1.510;2023-03-04T04:40:34;2.72;;;1.70;;
21987;SDS011;11158;53.404;-1.510;2023-03-04T04:43:00;6.80;;;2.35;;
21987;SDS011;11158;53.404;-1.510;2023-03-04T04:45:26;5.65;;;1.92;;
21987;SDS011;11158;53.404;-1.510;2023-03-04T04:47:52;4.45;;;1.92;;
21987;SDS011;11158;53.404;-1.510;2023-03-04T04:50:19;7.70;;;1.98;;
21987;SDS011;11158;53.404;-1.510;2023-03-04T04:52:45;5.22;;;1.83;;
21987;SDS011;11158;53.404;-1.510;2023-03-04T04:55:11;5.63;;;2.45;;
21987;SDS011;11158;53.404;-1.510;2023-03-04T04:57:36;2.65;;;2.00;;
21987;SDS011;11158;53.404;-1.510;2023-03-04T05:00:05;10.32;;;2.15;;
21987;SDS011;11158;53.404;-1.510;2023-03-04T05:02:32;6.65;;;2.05;;
21987;SDS011;11158;53.404;-1.510;2023-03-04T05:05:01;4.53;;;2.15;;
21987;SDS011;11158;53.404;-1.510;2023-03-04T05:07:27;7.03;;;2.47;;
21987;SDS011;11158;53.404;-1.510;2023-03-04T05:09:53;5.10;;;2.03;;
21987;SDS011;11158;53.404;-1.510;2023-03-04T05:12:19;3.50;;;1.70;;
21987;SDS011;11158;53.404;-1.510;2023-03-04T05:14:44;8.35;;;2.22;;
21987;SDS011;11158;53.404;-1.510;2023-03-04T05:17:10;4.82;;;1.73;;
21987;SDS011;11158;53.404;-1.510;2023-03-04T05:19:35;5.80;;;2.10;;
21987;SDS011;11158;53.404;-1.510;2023-03-04T05:22:01;6.80;;;1.90;;
21987;SDS011;11158;53.404;-1.510;2023-03-04T05:24:26;5.03;;;1.70;;
21987;SDS011;11158;53.404;-1.510;2023-03-04T05:26:52;5.88;;;2.05;;
21987;SDS011;11158;53.404;-1.510;2023-03-04T05:29:17;4.70;;;1.55;;
21987;SDS011;11158;53.404;-1.510;2023-03-04T05:31:43;6.10;;;1.88;;
21987;SDS011;11158;53.404;-1.510;2023-03-04T05:34:09;3.20;;;2.00;;
21987;SDS011;11158;53.404;-1.510;2023-03-04T05:36:34;4.95;;;1.98;;
21987;SDS011;11158;53.404;-1.510;2023-03-04T05:39:00;6.95;;;2.30;;
21987;SDS011;11158;53.404;-1.510;2023-03-04T05:41:25;5.72;;;1.98;;
21987;SDS011;11158;53.404;-1.510;2023-03-04T05:43:51;7.10;;;2.20;;
21987;SDS011;11158;53.404;-1.510;2023-03-04T05:46:17;6.38;;;1.90;;
21987;SDS011;11158;53.404;-1.510;2023-03-04T05:48:43;4.32;;;1.75;;
21987;SDS011;11158;53.404;-1.510;2023-03-04T05:51:09;3.58;;;1.80;;
21987;SDS011;11158;53.404;-1.510;2023-03-04T05:53:35;7.13;;;2.33;;
21987;SDS011;11158;53.404;-1.510;2023-03-04T05:56:08;5.18;;;1.75;;
21987;SDS011;11158;53.404;-1.510;2023-03-04T05:58:35;7.85;;;2.10;;
21987;SDS011;11158;53.404;-1.510;2023-03-04T06:01:00;8.10;;;1.92;;
21987;SDS011;11158;53.404;-1.510;2023-03-04T06:03:26;6.68;;;2.35;;
21987;SDS011;11158;53.404;-1.510;2023-03-04T06:05:52;7.15;;;1.90;;
21987;SDS011;11158;53.404;-1.510;2023-03-04T06:08:18;5.13;;;1.75;;
21987;SDS011;11158;53.404;-1.510;2023-03-04T06:10:44;6.60;;;1.98;;
21987;SDS011;11158;53.404;-1.510;2023-03-04T06:13:09;5.32;;;2.13;;
21987;SDS011;11158;53.404;-1.510;2023-03-04T06:15:35;3.17;;;1.73;;
21987;SDS011;11158;53.404;-1.510;2023-03-04T06:18:02;4.00;;;1.80;;
21987;SDS011;11158;53.404;-1.510;2023-03-04T06:20:28;4.53;;;1.90;;
21987;SDS011;11158;53.404;-1.510;2023-03-04T06:22:54;3.85;;;1.67;;
21987;SDS011;11158;53.404;-1.510;2023-03-04T06:25:19;6.28;;;1.92;;
21987;SDS011;11158;53.404;-1.510;2023-03-04T06:27:45;8.13;;;2.15;;
21987;SDS011;11158;53.404;-1.510;2023-03-04T06:30:10;6.53;;;1.77;;
21987;SDS011;11158;53.404;-1.510;2023-03-04T06:32:36;4.45;;;2.03;;
21987;SDS011;11158;53.404;-1.510;2023-03-04T06:35:02;4.47;;;1.52;;
21987;SDS011;11158;53.404;-1.510;2023-03-04T06:37:28;5.13;;;1.88;;
21987;SDS011;11158;53.404;-1.510;2023-03-04T06:39:53;6.80;;;1.77;;
21987;SDS011;11158;53.404;-1.510;2023-03-04T06:42:20;5.50;;;1.60;;
21987;SDS011;11158;53.404;-1.510;2023-03-04T06:44:47;6.43;;;2.00;;
21987;SDS011;11158;53.404;-1.510;2023-03-04T06:47:13;5.80;;;1.73;;
21987;SDS011;11158;53.404;-1.510;2023-03-04T06:49:40;6.75;;;1.95;;
21987;SDS011;11158;53.404;-1.510;2023-03-04T06:52:06;7.85;;;1.75;;
21987;SDS011;11158;53.404;-1.510;2023-03-04T06:54:35;7.32;;;1.77;;
21987;SDS011;11158;53.404;-1.510;2023-03-04T06:57:00;4.72;;;1.58;;
21987;SDS011;11158;53.404;-1.510;2023-03-04T06:59:26;6.85;;;2.10;;
21987;SDS011;11158;53.404;-1.510;2023-03-04T07:01:52;7.40;;;1.80;;
21987;SDS011;11158;53.404;-1.510;2023-03-04T07:04:18;5.97;;;1.80;;
21987;SDS011;11158;53.404;-1.510;2023-03-04T07:06:44;2.70;;;1.48;;
21987;SDS011;11158;53.404;-1.510;2023-03-04T07:09:09;9.77;;;2.05;;
21987;SDS011;11158;53.404;-1.510;2023-03-04T07:11:35;7.53;;;1.83;;
21987;SDS011;11158;53.404;-1.510;2023-03-04T07:14:00;7.53;;;1.67;;
21987;SDS011;11158;53.404;-1.510;2023-03-04T07:16:26;4.55;;;1.60;;
21987;SDS011;11158;53.404;-1.510;2023-03-04T07:18:52;3.97;;;1.70;;
21987;SDS011;11158;53.404;-1.510;2023-03-04T07:21:17;5.00;;;1.65;;
21987;SDS011;11158;53.404;-1.510;2023-03-04T07:23:43;5.07;;;2.10;;
21987;SDS011;11158;53.404;-1.510;2023-03-04T07:26:10;5.65;;;1.45;;
21987;SDS011;11158;53.404;-1.510;2023-03-04T07:28:35;6.10;;;1.90;;
21987;SDS011;11158;53.404;-1.510;2023-03-04T07:33:37;3.85;;;1.52;;
21987;SDS011;11158;53.404;-1.510;2023-03-04T07:36:03;9.02;;;1.73;;
21987;SDS011;11158;53.404;-1.510;2023-03-04T07:38:29;3.53;;;1.63;;
21987;SDS011;11158;53.404;-1.510;2023-03-04T07:40:55;4.57;;;1.88;;
21987;SDS011;11158;53.404;-1.510;2023-03-04T07:43:22;4.43;;;1.42;;
21987;SDS011;11158;53.404;-1.510;2023-03-04T07:45:47;5.05;;;1.70;;
21987;SDS011;11158;53.404;-1.510;2023-03-04T07:48:13;5.70;;;1.90;;
21987;SDS011;11158;53.404;-1.510;2023-03-04T07:50:38;7.32;;;2.47;;
21987;SDS011;11158;53.404;-1.510;2023-03-04T07:53:04;6.88;;;1.73;;
21987;SDS011;11158;53.404;-1.510;2023-03-04T07:55:30;4.55;;;1.88;;
21987;SDS011;11158;53.404;-1.510;2023-03-04T07:57:55;7.25;;;2.45;;
21987;SDS011;11158;53.404;-1.510;2023-03-04T08:00:21;5.60;;;1.90;;
21987;SDS011;11158;53.404;-1.510;2023-03-04T08:02:47;7.93;;;2.13;;
21987;SDS011;11158;53.404;-1.510;2023-03-04T08:05:13;8.75;;;2.20;;
21987;SDS011;11158;53.404;-1.510;2023-03-04T08:07:39;5.35;;;2.08;;
21987;SDS011;11158;53.404;-1.510;2023-03-04T08:10:05;3.22;;;1.48;;
21987;SDS011;11158;53.404;-1.510;2023-03-04T08:12:32;8.82;;;1.75;;
21987;SDS011;11158;53.404;-1.510;2023-03-04T08:14:58;4.75;;;1.52;;
21987;SDS011;11158;53.404;-1.510;2023-03-04T08:17:24;5.97;;;2.00;;
21987;SDS011;11158;53.404;-1.510;2023-03-04T08:19:50;5.68;;;1.92;;
21987;SDS011;11158;53.404;-1.510;2023-03-04T08:22:15;7.80;;;2.05;;
21987;SDS011;11158;53.404;-1.510;2023-03-04T08:24:41;4.00;;;1.70;;
21987;SDS011;11158;53.404;-1.510;2023-03-04T08:27:06;4.53;;;1.95;;
21987;SDS011;11158;53.404;-1.510;2023-03-04T08:29:32;8.52;;;2.03;;
21987;SDS011;11158;53.404;-1.510;2023-03-04T08:31:58;8.73;;;1.40;;
21987;SDS011;11158;53.404;-1.510;2023-03-04T08:34:24;4.82;;;1.70;;
21987;SDS011;11158;53.404;-1.510;2023-03-04T08:36:51;2.40;;;1.60;;
21987;SDS011;11158;53.404;-1.510;2023-03-04T08:39:17;6.18;;;1.85;;
21987;SDS011;11158;53.404;-1.510;2023-03-04T08:41:43;5.68;;;1.90;;
21987;SDS011;11158;53.404;-1.510;2023-03-04T08:44:09;6.50;;;2.55;;
21987;SDS011;11158;53.404;-1.510;2023-03-04T08:46:35;9.45;;;1.98;;
21987;SDS011;11158;53.404;-1.510;2023-03-04T08:49:02;11.88;;;2.28;;
21987;SDS011;11158;53.404;-1.510;2023-03-04T08:51:28;7.53;;;2.08;;
21987;SDS011;11158;53.404;-1.510;2023-03-04T08:53:54;4.95;;;2.10;;
21987;SDS011;11158;53.404;-1.510;2023-03-04T08:56:20;7.07;;;1.67;;
21987;SDS011;11158;53.404;-1.510;2023-03-04T08:58:45;5.15;;;1.70;;
21987;SDS011;11158;53.404;-1.510;2023-03-04T09:01:12;11.20;;;2.28;;
21987;SDS011;11158;53.404;-1.510;2023-03-04T09:03:38;5.57;;;2.10;;
21987;SDS011;11158;53.404;-1.510;2023-03-04T09:06:05;6.28;;;1.67;;
21987;SDS011;11158;53.404;-1.510;2023-03-04T09:08:32;5.18;;;1.75;;
21987;SDS011;11158;53.404;-1.510;2023-03-04T09:10:57;6.60;;;2.33;;
21987;SDS011;11158;53.404;-1.510;2023-03-04T09:13:24;3.40;;;1.60;;
21987;SDS011;11158;53.404;-1.510;2023-03-04T09:15:52;7.05;;;1.80;;
21987;SDS011;11158;53.404;-1.510;2023-03-04T09:18:18;3.85;;;1.92;;
21987;SDS011;11158;53.404;-1.510;2023-03-04T09:20:45;5.38;;;1.85;;
21987;SDS011;11158;53.404;-1.510;2023-03-04T09:23:12;7.53;;;2.72;;
21987;SDS011;11158;53.404;-1.510;2023-03-04T09:25:38;7.88;;;1.67;;
21987;SDS011;11158;53.404;-1.510;2023-03-04T09:28:04;4.53;;;2.10;;
21987;SDS011;11158;53.404;-1.510;2023-03-04T09:30:31;3.28;;;1.48;;
21987;SDS011;11158;53.404;-1.510;2023-03-04T09:32:57;4.78;;;1.48;;
21987;SDS011;11158;53.404;-1.510;2023-03-04T09:35:22;3.78;;;1.48;;
21987;SDS011;11158;53.404;-1.510;2023-03-04T09:37:49;5.07;;;1.60;;
21987;SDS011;11158;53.404;-1.510;2023-03-04T09:40:37;6.20;;;2.05;;
21987;SDS011;11158;53.404;-1.510;2023-03-04T09:43:06;7.57;;;2.03;;
21987;SDS011;11158;53.404;-1.510;2023-03-04T09:46:00;4.50;;;1.70;;
21987;SDS011;11158;53.404;-1.510;2023-03-04T09:48:29;3.95;;;1.40;;
21987;SDS011;11158;53.404;-1.510;2023-03-04T09:56:36;6.10;;;1.60;;
21987;SDS011;11158;53.404;-1.510;2023-03-04T09:59:19;5.20;;;2.10;;
21987;SDS011;11158;53.404;-1.510;2023-03-04T10:06:53;6.90;;;1.70;;
21987;SDS011;11158;53.404;-1.510;2023-03-04T10:09:31;5.25;;;1.85;;
21987;SDS011;11158;53.404;-1.510;2023-03-04T10:12:10;6.85;;;2.35;;
21987;SDS011;11158;53.404;-1.510;2023-03-04T10:17:14;4.32;;;1.80;;
21987;SDS011;11158;53.404;-1.510;2023-03-04T10:20:03;5.63;;;1.83;;
21987;SDS011;11158;53.404;-1.510;2023-03-04T10:22:50;8.57;;;2.20;;
21987;SDS011;11158;53.404;-1.510;2023-03-04T10:25:24;4.47;;;1.50;;
21987;SDS011;11158;53.404;-1.510;2023-03-04T10:27:58;6.57;;;1.58;;
21987;SDS011;11158;53.404;-1.510;2023-03-04T10:33:28;7.82;;;2.20;;
21987;SDS011;11158;53.404;-1.510;2023-03-04T10:36:03;7.90;;;1.88;;
21987;SDS011;11158;53.404;-1.510;2023-03-04T10:38:49;10.95;;;2.10;;
21987;SDS011;11158;53.404;-1.510;2023-03-04T10:41:20;7.15;;;1.95;;
21987;SDS011;11158;53.404;-1.510;2023-03-04T10:43:48;7.20;;;1.98;;
21987;SDS011;11158;53.404;-1.510;2023-03-04T10:46:24;8.90;;;2.05;;
21987;SDS011;11158;53.404;-1.510;2023-03-04T10:48:51;3.25;;;1.92;;
21987;SDS011;11158;53.404;-1.510;2023-03-04T10:51:22;5.80;;;2.05;;
21987;SDS011;11158;53.404;-1.510;2023-03-04T10:53:50;5.03;;;2.22;;
21987;SDS011;11158;53.404;-1.510;2023-03-04T10:56:40;6.70;;;1.98;;
21987;SDS011;11158;53.404;-1.510;2023-03-04T11:04:41;8.13;;;1.83;;
21987;SDS011;11158;53.404;-1.510;2023-03-04T11:07:08;3.83;;;1.98;;
21987;SDS011;11158;53.404;-1.510;2023-03-04T11:09:35;5.32;;;1.88;;
21987;SDS011;11158;53.404;-1.510;2023-03-04T11:12:02;5.13;;;1.90;;
21987;SDS011;11158;53.404;-1.510;2023-03-04T11:14:35;8.38;;;2.40;;
21987;SDS011;11158;53.404;-1.510;2023-03-04T11:23:03;7.93;;;2.53;;
21987;SDS011;11158;53.404;-1.510;2023-03-04T11:25:35;7.38;;;2.03;;
21987;SDS011;11158;53.404;-1.510;2023-03-04T11:28:21;8.30;;;2.13;;
21987;SDS011;11158;53.404;-1.510;2023-03-04T11:31:00;8.65;;;2.65;;
21987;SDS011;11158;53.404;-1.510;2023-03-04T11:37:01;6.95;;;2.22;;
21987;SDS011;11158;53.404;-1.510;2023-03-04T11:39:43;7.97;;;1.80;;
21987;SDS011;11158;53.404;-1.510;2023-03-04T11:44:48;4.45;;;1.77;;
21987;SDS011;11158;53.404;-1.510;2023-03-04T11:47:17;4.03;;;1.85;;
21987;SDS011;11158;53.404;-1.510;2023-03-04T12:00:39;8.10;;;2.22;;
21987;SDS011;11158;53.404;-1.510;2023-03-04T12:06:29;5.47;;;1.88;;
21987;SDS011;11158;53.404;-1.510;2023-03-04T12:22:33;4.20;;;1.83;;
21987;SDS011;11158;53.404;-1.510;2023-03-04T12:28:24;5.05;;;2.00;;
21987;SDS011;11158;53.404;-1.510;2023-03-04T12:34:05;6.43;;;2.00;;
21987;SDS011;11158;53.404;-1.510;2023-03-04T12:36:36;7.15;;;2.67;;
21987;SDS011;11158;53.404;-1.510;2023-03-04T12:39:31;5.72;;;2.40;;
21987;SDS011;11158;53.404;-1.510;2023-03-04T12:55:55;2.95;;;1.27;;
21987;SDS011;11158;53.404;-1.510;2023-03-04T12:58:23;4.22;;;1.17;;
21987;SDS011;11158;53.404;-1.510;2023-03-04T13:00:58;4.00;;;1.40;;
21987;SDS011;11158;53.404;-1.510;2023-03-04T13:03:50;3.58;;;1.60;;
21987;SDS011;11158;53.404;-1.510;2023-03-04T13:06:27;3.53;;;1.27;;
21987;SDS011;11158;53.404;-1.510;2023-03-04T13:11:41;5.50;;;1.85;;
21987;SDS011;11158;53.404;-1.510;2023-03-04T13:14:25;4.75;;;1.30;;
21987;SDS011;11158;53.404;-1.510;2023-03-04T13:16:54;2.53;;;1.33;;
21987;SDS011;11158;53.404;-1.510;2023-03-04T13:47:13;4.15;;;1.23;;
21987;SDS011;11158;53.404;-1.510;2023-03-04T13:49:41;2.88;;;1.45;;
21987;SDS011;11158;53.404;-1.510;2023-03-04T13:55:47;4.53;;;1.38;;
21987;SDS011;11158;53.404;-1.510;2023-03-04T13:57:57;3.17;;;1.50;;
21987;SDS011;11158;53.404;-1.510;2023-03-04T14:00:22;4.32;;;1.65;;
21987;SDS011;11158;53.404;-1.510;2023-03-04T14:02:49;4.05;;;1.13;;
21987;SDS011;11158;53.404;-1.510;2023-03-04T14:05:15;3.97;;;1.40;;
21987;SDS011;11158;53.404;-1.510;2023-03-04T14:07:40;3.80;;;1.27;;
21987;SDS011;11158;53.404;-1.510;2023-03-04T14:12:55;3.05;;;1.60;;
21987;SDS011;11158;53.404;-1.510;2023-03-04T14:15:26;2.70;;;1.58;;
21987;SDS011;11158;53.404;-1.510;2023-03-04T14:17:54;2.47;;;1.08;;
21987;SDS011;11158;53.404;-1.510;2023-03-04T14:22:57;4.60;;;1.70;;
21987;SDS011;11158;53.404;-1.510;2023-03-04T14:25:28;4.28;;;1.40;;
21987;SDS011;11158;53.404;-1.510;2023-03-04T14:30:30;3.60;;;1.70;;
21987;SDS011;11158;53.404;-1.510;2023-03-04T14:32:59;5.85;;;1.50;;
21987;SDS011;11158;53.404;-1.510;2023-03-04T14:35:26;3.33;;;1.50;;
21987;SDS011;11158;53.404;-1.510;2023-03-04T14:37:58;2.88;;;1.70;;
21987;SDS011;11158;53.404;-1.510;2023-03-04T14:40:34;4.03;;;1.70;;
21987;SDS011;11158;53.404;-1.510;2023-03-04T14:43:14;4.95;;;2.08;;
21987;SDS011;11158;53.404;-1.510;2023-03-04T14:45:44;3.28;;;1.60;;
21987;SDS011;11158;53.404;-1.510;2023-03-04T14:48:27;3.53;;;1.60;;
21987;SDS011;11158;53.404;-1.510;2023-03-04T14:50:55;3.85;;;1.52;;
21987;SDS011;11158;53.404;-1.510;2023-03-04T14:53:22;6.30;;;2.05;;
21987;SDS011;11158;53.404;-1.510;2023-03-04T14:55:57;3.30;;;1.95;;
21987;SDS011;11158;53.404;-1.510;2023-03-04T14:58:25;2.65;;;1.80;;
21987;SDS011;11158;53.404;-1.510;2023-03-04T15:04:06;3.63;;;1.35;;
21987;SDS011;11158;53.404;-1.510;2023-03-04T15:06:39;4.28;;;1.65;;
21987;SDS011;11158;53.404;-1.510;2023-03-04T15:09:23;4.83;;;1.83;;
21987;SDS011;11158;53.404;-1.510;2023-03-04T15:11:55;2.38;;;1.27;;
21987;SDS011;11158;53.404;-1.510;2023-03-04T15:22:55;4.53;;;2.05;;
21987;SDS011;11158;53.404;-1.510;2023-03-04T15:25:25;6.90;;;2.08;;
21987;SDS011;11158;53.404;-1.510;2023-03-04T15:27:52;3.72;;;1.40;;
21987;SDS011;11158;53.404;-1.510;2023-03-04T15:30:28;5.15;;;1.80;;
21987;SDS011;11158;53.404;-1.510;2023-03-04T15:32:56;8.10;;;1.92;;
21987;SDS011;11158;53.404;-1.510;2023-03-04T15:35:23;5.00;;;2.20;;
21987;SDS011;11158;53.404;-1.510;2023-03-04T15:37:52;4.13;;;1.80;;
21987;SDS011;11158;53.404;-1.510;2023-03-04T15:43:00;5.72;;;2.00;;
21987;SDS011;11158;53.404;-1.510;2023-03-04T15:45:31;4.88;;;1.80;;
21987;SDS011;11158;53.404;-1.510;2023-03-04T15:48:03;3.30;;;1.88;;
21987;SDS011;11158;53.404;-1.510;2023-03-04T15:50:37;6.10;;;2.03;;
21987;SDS011;11158;53.404;-1.510;2023-03-04T15:53:07;3.35;;;1.90;;
21987;SDS011;11158;53.404;-1.510;2023-03-04T15:55:39;3.90;;;1.58;;
21987;SDS011;11158;53.404;-1.510;2023-03-04T15:58:09;3.60;;;1.95;;
21987;SDS011;11158;53.404;-1.510;2023-03-04T16:00:36;2.42;;;1.60;;
21987;SDS011;11158;53.404;-1.510;2023-03-04T16:03:01;6.22;;;2.42;;
21987;SDS011;11158;53.404;-1.510;2023-03-04T16:05:27;4.00;;;2.17;;
21987;SDS011;11158;53.404;-1.510;2023-03-04T16:07:54;6.05;;;2.17;;
21987;SDS011;11158;53.404;-1.510;2023-03-04T16:12:50;4.63;;;2.10;;
21987;SDS011;11158;53.404;-1.510;2023-03-04T16:15:21;3.67;;;1.60;;
21987;SDS011;11158;53.404;-1.510;2023-03-04T16:17:49;12.75;;;2.22;;
21987;SDS011;11158;53.404;-1.510;2023-03-04T16:20:18;4.13;;;1.70;;
21987;SDS011;11158;53.404;-1.510;2023-03-04T16:22:53;2.60;;;1.30;;
21987;SDS011;11158;53.404;-1.510;2023-03-04T16:25:22;4.57;;;1.75;;
21987;SDS011;11158;53.404;-1.510;2023-03-04T16:27:50;3.78;;;1.92;;
21987;SDS011;11158;53.404;-1.510;2023-03-04T16:30:20;5.97;;;2.28;;
21987;SDS011;11158;53.404;-1.510;2023-03-04T16:32:48;6.63;;;2.33;;
21987;SDS011;11158;53.404;-1.510;2023-03-04T16:35:16;8.68;;;2.90;;
21987;SDS011;11158;53.404;-1.510;2023-03-04T16:37:43;4.35;;;2.20;;
21987;SDS011;11158;53.404;-1.510;2023-03-04T16:40:11;6.82;;;2.80;;
21987;SDS011;11158;53.404;-1.510;2023-03-04T16:42:41;7.25;;;3.05;;
21987;SDS011;11158;53.404;-1.510;2023-03-04T16:45:25;9.20;;;2.90;;
21987;SDS011;11158;53.404;-1.510;2023-03-04T16:47:54;6.10;;;3.80;;
21987;SDS011;11158;53.404;-1.510;2023-03-04T16:50:23;6.22;;;2.42;;
21987;SDS011;11158;53.404;-1.510;2023-03-04T16:52:53;5.22;;;2.67;;
21987;SDS011;11158;53.404;-1.510;2023-03-04T16:57:55;3.85;;;2.42;;
21987;SDS011;11158;53.404;-1.510;2023-03-04T17:00:26;3.92;;;2.17;;
21987;SDS011;11158;53.404;-1.510;2023-03-04T17:02:57;6.60;;;2.78;;
21987;SDS011;11158;53.404;-1.510;2023-03-04T17:05:25;5.03;;;2.47;;
21987;SDS011;11158;53.404;-1.510;2023-03-04T17:07:54;5.47;;;2.70;;
21987;SDS011;11158;53.404;-1.510;2023-03-04T17:10:20;7.28;;;2.90;;
21987;SDS011;11158;53.404;-1.510;2023-03-04T17:12:46;5.50;;;2.40;;